sensor_id;sensor_type;location;lat;lon;timestamp;pressure;altitude;pressure_sealevel;temperature;humidity
67740;BME280;54536;50.090;14.420;2024-01-06T00:02:11;98313.84;;;8.64;66.27
67740;BME280;54536;50.090;14.420;2024-01-06T00:04:37;98316.91;;;8.59;66.04
67740;BME280;54536;50.090;14.420;2024-01-06T00:07:03;98306.56;;;8.76;65.60
67740;BME280;54536;50.090;14.420;2024-01-06T00:09:29;98314.72;;;8.73;64.69
67740;BME280;54536;50.090;14.420;2024-01-06T00:11:55;98306.03;;;8.72;64.77
67740;BME280;54536;50.090;14.420;2024-01-06T00:14:21;98304.56;;;8.52;64.92
67740;BME280;54536;50.090;14.420;2024-01-06T00:16:47;98305.31;;;8.44;65.77
67740;BME280;54536;50.090;14.420;2024-01-06T00:19:13;98302.91;;;8.51;65.49
67740;BME280;54536;50.090;14.420;2024-01-06T00:21:39;98303.56;;;8.71;64.95
67740;BME280;54536;50.090;14.420;2024-01-06T00:24:06;98305.38;;;8.70;64.57
67740;BME280;54536;50.090;14.420;2024-01-06T00:26:32;98312.31;;;8.79;64.08
67740;BME280;54536;50.090;14.420;2024-01-06T00:28:58;98302.97;;;8.77;64.63
67740;BME280;54536;50.090;14.420;2024-01-06T00:31:24;98303.53;;;8.88;64.24
67740;BME280;54536;50.090;14.420;2024-01-06T00:33:50;98315.88;;;8.70;64.22
67740;BME280;54536;50.090;14.420;2024-01-06T00:36:17;98308.81;;;8.71;64.34
67740;BME280;54536;50.090;14.420;2024-01-06T00:38:43;98305.03;;;8.91;63.52
67740;BME280;54536;50.090;14.420;2024-01-06T00:41:09;98308.44;;;8.83;63.77
67740;BME280;54536;50.090;14.420;2024-01-06T00:43:35;98306.38;;;8.95;63.08
67740;BME280;54536;50.090;14.420;2024-01-06T00:46:02;98319.53;;;8.77;63.58
67740;BME280;54536;50.090;14.420;2024-01-06T00:48:28;98309.38;;;8.82;63.29
67740;BME280;54536;50.090;14.420;2024-01-06T00:50:55;98316.31;;;8.83;62.98
67740;BME280;54536;50.090;14.420;2024-01-06T00:53:21;98321.31;;;8.59;63.94
67740;BME280;54536;50.090;14.420;2024-01-06T00:55:48;98324.22;;;8.56;64.28
67740;BME280;54536;50.090;14.420;2024-01-06T00:58:13;98329.09;;;8.68;64.66
67740;BME280;54536;50.090;14.420;2024-01-06T01:00:39;98325.66;;;8.68;64.45
67740;BME280;54536;50.090;14.420;2024-01-06T01:03:05;98322.28;;;8.76;64.83
67740;BME280;54536;50.090;14.420;2024-01-06T01:05:32;98326.25;;;8.80;66.17
67740;BME280;54536;50.090;14.420;2024-01-06T01:07:58;98331.41;;;8.72;67.36
67740;BME280;54536;50.090;14.420;2024-01-06T01:10:24;98342.88;;;8.53;68.06
67740;BME280;54536;50.090;14.420;2024-01-06T01:12:50;98341.00;;;8.63;67.60
67740;BME280;54536;50.090;14.420;2024-01-06T01:15:16;98346.25;;;8.63;68.22
67740;BME280;54536;50.090;14.420;2024-01-06T01:17:42;98341.69;;;8.65;67.06
67740;BME280;54536;50.090;14.420;2024-01-06T01:20:09;98348.50;;;8.58;67.31
67740;BME280;54536;50.090;14.420;2024-01-06T01:22:35;98345.66;;;8.51;67.43
67740;BME280;54536;50.090;14.420;2024-01-06T01:25:03;98345.88;;;8.58;67.75
67740;BME280;54536;50.090;14.420;2024-01-06T01:27:34;98349.38;;;8.49;67.70
67740;BME280;54536;50.090;14.420;2024-01-06T01:30:00;98350.38;;;8.48;68.57
67740;BME280;54536;50.090;14.420;2024-01-06T01:32:26;98343.69;;;8.53;68.29
67740;BME280;54536;50.090;14.420;2024-01-06T01:34:53;98346.63;;;8.50;68.41
67740;BME280;54536;50.090;14.420;2024-01-06T01:37:19;98353.28;;;8.44;68.53
67740;BME280;54536;50.090;14.420;2024-01-06T01:39:45;98343.84;;;8.52;68.10
67740;BME280;54536;50.090;14.420;2024-01-06T01:42:11;98345.94;;;8.48;69.09
67740;BME280;54536;50.090;14.420;2024-01-06T01:44:37;98343.16;;;8.50;68.57
67740;BME280;54536;50.090;14.420;2024-01-06T01:47:05;98348.41;;;8.50;68.85
67740;BME280;54536;50.090;14.420;2024-01-06T01:49:31;98352.81;;;8.49;68.42
67740;BME280;54536;50.090;14.420;2024-01-06T01:51:58;98351.56;;;8.53;68.29
67740;BME280;54536;50.090;14.420;2024-01-06T01:54:26;98351.19;;;8.48;68.58
67740;BME280;54536;50.090;14.420;2024-01-06T01:56:53;98349.97;;;8.42;69.13
67740;BME280;54536;50.090;14.420;2024-01-06T01:59:20;98353.63;;;8.32;69.28
67740;BME280;54536;50.090;14.420;2024-01-06T02:01:47;98352.19;;;8.37;69.06
67740;BME280;54536;50.090;14.420;2024-01-06T02:04:13;98349.72;;;8.36;68.83
67740;BME280;54536;50.090;14.420;2024-01-06T02:06:39;98342.41;;;8.39;69.38
67740;BME280;54536;50.090;14.420;2024-01-06T02:09:06;98341.53;;;8.49;68.78
67740;BME280;54536;50.090;14.420;2024-01-06T02:11:32;98339.88;;;8.48;69.28
67740;BME280;54536;50.090;14.420;2024-01-06T02:13:58;98339.59;;;8.51;68.25
67740;BME280;54536;50.090;14.420;2024-01-06T02:16:23;98342.66;;;8.46;68.98
67740;BME280;54536;50.090;14.420;2024-01-06T02:18:50;98346.28;;;8.35;69.13
67740;BME280;54536;50.090;14.420;2024-01-06T02:21:17;98345.59;;;8.33;69.37
67740;BME280;54536;50.090;14.420;2024-01-06T02:23:43;98343.44;;;8.29;69.68
67740;BME280;54536;50.090;14.420;2024-01-06T02:26:10;98344.75;;;8.15;70.71
67740;BME280;54536;50.090;14.420;2024-01-06T02:28:37;98346.34;;;8.26;69.67
67740;BME280;54536;50.090;14.420;2024-01-06T02:31:03;98337.78;;;8.24;69.70
67740;BME280;54536;50.090;14.420;2024-01-06T02:33:29;98344.94;;;8.31;69.79
67740;BME280;54536;50.090;14.420;2024-01-06T02:35:55;98342.41;;;8.39;69.10
67740;BME280;54536;50.090;14.420;2024-01-06T02:38:21;98345.47;;;8.35;69.24
67740;BME280;54536;50.090;14.420;2024-01-06T02:40:47;98336.22;;;8.40;69.64
67740;BME280;54536;50.090;14.420;2024-01-06T02:43:13;98343.81;;;8.34;69.05
67740;BME280;54536;50.090;14.420;2024-01-06T02:45:39;98341.34;;;8.32;69.75
67740;BME280;54536;50.090;14.420;2024-01-06T02:48:06;98346.09;;;8.19;70.21
67740;BME280;54536;50.090;14.420;2024-01-06T02:50:32;98343.66;;;8.35;69.35
67740;BME280;54536;50.090;14.420;2024-01-06T02:52:58;98344.41;;;8.28;70.20
67740;BME280;54536;50.090;14.420;2024-01-06T02:55:24;98343.56;;;8.27;69.67
67740;BME280;54536;50.090;14.420;2024-01-06T02:57:50;98348.22;;;8.33;70.14
67740;BME280;54536;50.090;14.420;2024-01-06T03:00:16;98348.75;;;8.37;69.36
67740;BME280;54536;50.090;14.420;2024-01-06T03:02:42;98349.00;;;8.43;69.97
67740;BME280;54536;50.090;14.420;2024-01-06T03:05:09;98347.34;;;8.42;69.51
67740;BME280;54536;50.090;14.420;2024-01-06T03:07:36;98357.19;;;8.40;69.98
67740;BME280;54536;50.090;14.420;2024-01-06T03:10:02;98357.53;;;8.46;70.15
67740;BME280;54536;50.090;14.420;2024-01-06T03:12:28;98356.19;;;8.41;70.10
67740;BME280;54536;50.090;14.420;2024-01-06T03:14:54;98354.13;;;8.35;70.36
67740;BME280;54536;50.090;14.420;2024-01-06T03:17:20;98354.97;;;8.36;69.90
67740;BME280;54536;50.090;14.420;2024-01-06T03:19:46;98361.59;;;8.30;70.16
67740;BME280;54536;50.090;14.420;2024-01-06T03:22:12;98351.41;;;8.27;70.53
67740;BME280;54536;50.090;14.420;2024-01-06T03:24:40;98350.78;;;8.43;70.47
67740;BME280;54536;50.090;14.420;2024-01-06T03:27:06;98340.22;;;8.35;70.13
67740;BME280;54536;50.090;14.420;2024-01-06T03:29:32;98339.50;;;8.42;70.28
67740;BME280;54536;50.090;14.420;2024-01-06T03:31:58;98338.38;;;8.45;70.99
67740;BME280;54536;50.090;14.420;2024-01-06T03:34:24;98343.16;;;8.50;70.48
67740;BME280;54536;50.090;14.420;2024-01-06T03:36:50;98339.38;;;8.44;70.93
67740;BME280;54536;50.090;14.420;2024-01-06T03:39:16;98347.91;;;8.36;70.50
67740;BME280;54536;50.090;14.420;2024-01-06T03:41:43;98344.22;;;8.39;70.76
67740;BME280;54536;50.090;14.420;2024-01-06T03:44:08;98347.81;;;8.38;70.45
67740;BME280;54536;50.090;14.420;2024-01-06T03:46:35;98351.09;;;8.40;71.06
67740;BME280;54536;50.090;14.420;2024-01-06T03:49:02;98343.94;;;8.32;70.84
67740;BME280;54536;50.090;14.420;2024-01-06T03:51:28;98350.78;;;8.43;71.24
67740;BME280;54536;50.090;14.420;2024-01-06T03:53:54;98350.72;;;8.53;70.02
67740;BME280;54536;50.090;14.420;2024-01-06T03:56:20;98352.19;;;8.37;70.63
67740;BME280;54536;50.090;14.420;2024-01-06T03:58:46;98343.63;;;8.45;70.46
67740;BME280;54536;50.090;14.420;2024-01-06T04:01:13;98345.78;;;8.50;70.07
67740;BME280;54536;50.090;14.420;2024-01-06T04:03:38;98335.25;;;8.41;70.59
67740;BME280;54536;50.090;14.420;2024-01-06T04:06:09;98341.03;;;8.35;70.95
67740;BME280;54536;50.090;14.420;2024-01-06T04:08:39;98334.47;;;8.31;70.77
67740;BME280;54536;50.090;14.420;2024-01-06T04:11:07;98339.69;;;8.31;70.90
67740;BME280;54536;50.090;14.420;2024-01-06T04:13:33;98332.31;;;8.44;69.90
67740;BME280;54536;50.090;14.420;2024-01-06T04:15:59;98339.69;;;8.31;70.41
67740;BME280;54536;50.090;14.420;2024-01-06T04:18:25;98345.75;;;8.32;71.18
67740;BME280;54536;50.090;14.420;2024-01-06T04:20:51;98338.84;;;8.40;71.09
67740;BME280;54536;50.090;14.420;2024-01-06T04:23:17;98347.34;;;8.42;70.74
67740;BME280;54536;50.090;14.420;2024-01-06T04:25:43;98336.75;;;8.44;70.68
67740;BME280;54536;50.090;14.420;2024-01-06T04:28:09;98340.84;;;8.47;70.06
67740;BME280;54536;50.090;14.420;2024-01-06T04:30:35;98342.34;;;8.49;70.01
67740;BME280;54536;50.090;14.420;2024-01-06T04:33:01;98328.88;;;8.44;70.10
67740;BME280;54536;50.090;14.420;2024-01-06T04:35:27;98331.50;;;8.44;70.45
67740;BME280;54536;50.090;14.420;2024-01-06T04:37:53;98334.97;;;8.35;70.56
67740;BME280;54536;50.090;14.420;2024-01-06T04:40:19;98340.06;;;8.36;70.56
67740;BME280;54536;50.090;14.420;2024-01-06T04:42:45;98341.63;;;8.29;70.35
67740;BME280;54536;50.090;14.420;2024-01-06T04:45:12;98345.19;;;8.38;70.34
67740;BME280;54536;50.090;14.420;2024-01-06T04:47:37;98347.56;;;8.31;70.63
67740;BME280;54536;50.090;14.420;2024-01-06T04:50:04;98345.06;;;8.30;70.73
67740;BME280;54536;50.090;14.420;2024-01-06T04:52:31;98346.34;;;8.26;70.72
67740;BME280;54536;50.090;14.420;2024-01-06T04:54:58;98351.41;;;8.27;70.81
67740;BME280;54536;50.090;14.420;2024-01-06T04:57:24;98351.75;;;8.24;70.90
67740;BME280;54536;50.090;14.420;2024-01-06T04:59:50;98356.28;;;8.22;70.86
67740;BME280;54536;50.090;14.420;2024-01-06T05:02:16;98366.22;;;8.18;70.87
67740;BME280;54536;50.090;14.420;2024-01-06T05:04:42;98364.44;;;8.19;69.90
67740;BME280;54536;50.090;14.420;2024-01-06T05:07:08;98364.66;;;8.26;70.59
67740;BME280;54536;50.090;14.420;2024-01-06T05:09:34;98367.28;;;8.26;70.17
67740;BME280;54536;50.090;14.420;2024-01-06T05:12:00;98361.66;;;8.20;70.59
67740;BME280;54536;50.090;14.420;2024-01-06T05:14:26;98363.09;;;8.15;70.40
67740;BME280;54536;50.090;14.420;2024-01-06T05:16:52;98366.94;;;8.11;71.30
67740;BME280;54536;50.090;14.420;2024-01-06T05:19:18;98368.31;;;8.15;70.83
67740;BME280;54536;50.090;14.420;2024-01-06T05:21:48;98365.78;;;8.23;70.60
67740;BME280;54536;50.090;14.420;2024-01-06T05:24:14;98360.53;;;8.23;70.19
67740;BME280;54536;50.090;14.420;2024-01-06T05:26:41;98360.13;;;8.28;70.56
67740;BME280;54536;50.090;14.420;2024-01-06T05:29:08;98360.31;;;8.16;70.61
67740;BME280;54536;50.090;14.420;2024-01-06T05:31:33;98366.22;;;8.18;70.57
67740;BME280;54536;50.090;14.420;2024-01-06T05:34:00;98371.03;;;8.23;70.72
67740;BME280;54536;50.090;14.420;2024-01-06T05:36:26;98368.44;;;8.13;70.71
67740;BME280;54536;50.090;14.420;2024-01-06T05:38:52;98380.31;;;8.17;71.26
67740;BME280;54536;50.090;14.420;2024-01-06T05:41:18;98384.03;;;8.15;70.91
67740;BME280;54536;50.090;14.420;2024-01-06T05:43:44;98384.56;;;8.18;70.70
67740;BME280;54536;50.090;14.420;2024-01-06T05:46:10;98376.25;;;8.23;70.35
67740;BME280;54536;50.090;14.420;2024-01-06T05:48:37;98379.09;;;8.12;70.96
67740;BME280;54536;50.090;14.420;2024-01-06T05:51:06;98380.31;;;8.17;70.74
67740;BME280;54536;50.090;14.420;2024-01-06T05:53:35;98387.31;;;8.17;70.79
67740;BME280;54536;50.090;14.420;2024-01-06T05:56:01;98386.78;;;8.13;70.36
67740;BME280;54536;50.090;14.420;2024-01-06T05:58:28;98398.56;;;8.27;70.41
67740;BME280;54536;50.090;14.420;2024-01-06T06:00:53;98399.88;;;8.13;70.49
67740;BME280;54536;50.090;14.420;2024-01-06T06:03:19;98408.72;;;8.12;70.80
67740;BME280;54536;50.090;14.420;2024-01-06T06:05:45;98408.13;;;8.18;70.21
67740;BME280;54536;50.090;14.420;2024-01-06T06:08:12;98413.91;;;8.22;70.25
67740;BME280;54536;50.090;14.420;2024-01-06T06:10:37;98416.13;;;8.17;70.78
67740;BME280;54536;50.090;14.420;2024-01-06T06:13:17;98423.84;;;8.18;71.08
67740;BME280;54536;50.090;14.420;2024-01-06T06:15:43;98423.03;;;8.18;71.16
67740;BME280;54536;50.090;14.420;2024-01-06T06:18:10;98437.91;;;8.17;70.48
67740;BME280;54536;50.090;14.420;2024-01-06T06:20:35;98431.28;;;8.13;70.55
67740;BME280;54536;50.090;14.420;2024-01-06T06:23:02;98431.69;;;8.18;70.95
67740;BME280;54536;50.090;14.420;2024-01-06T06:25:27;98434.16;;;8.20;71.17
67740;BME280;54536;50.090;14.420;2024-01-06T06:27:54;98442.13;;;8.28;70.62
67740;BME280;54536;50.090;14.420;2024-01-06T06:30:19;98444.38;;;8.13;71.47
67740;BME280;54536;50.090;14.420;2024-01-06T06:32:45;98451.91;;;8.26;70.61
67740;BME280;54536;50.090;14.420;2024-01-06T06:35:11;98449.16;;;8.28;70.90
67740;BME280;54536;50.090;14.420;2024-01-06T06:37:38;98449.00;;;8.29;70.26
67740;BME280;54536;50.090;14.420;2024-01-06T06:40:04;98447.91;;;8.32;70.64
67740;BME280;54536;50.090;14.420;2024-01-06T06:42:30;98451.78;;;8.28;70.31
67740;BME280;54536;50.090;14.420;2024-01-06T06:44:56;98452.66;;;8.18;70.81
67740;BME280;54536;50.090;14.420;2024-01-06T06:47:23;98459.97;;;8.15;71.84
67740;BME280;54536;50.090;14.420;2024-01-06T06:49:48;98463.66;;;8.22;71.60
67740;BME280;54536;50.090;14.420;2024-01-06T06:52:15;98462.31;;;8.18;71.92
67740;BME280;54536;50.090;14.420;2024-01-06T06:54:41;98459.41;;;8.21;71.08
67740;BME280;54536;50.090;14.420;2024-01-06T06:57:07;98470.56;;;8.13;70.83
67740;BME280;54536;50.090;14.420;2024-01-06T06:59:33;98475.16;;;8.11;72.16
67740;BME280;54536;50.090;14.420;2024-01-06T07:01:59;98483.09;;;8.19;71.16
67740;BME280;54536;50.090;14.420;2024-01-06T07:04:25;98481.97;;;8.22;71.69
67740;BME280;54536;50.090;14.420;2024-01-06T07:06:52;98481.56;;;8.17;72.19
67740;BME280;54536;50.090;14.420;2024-01-06T07:09:18;98484.94;;;8.09;71.66
67740;BME280;54536;50.090;14.420;2024-01-06T07:11:44;98486.81;;;8.17;71.38
67740;BME280;54536;50.090;14.420;2024-01-06T07:14:10;98494.41;;;8.10;70.98
67740;BME280;54536;50.090;14.420;2024-01-06T07:16:36;98499.94;;;8.07;70.73
67740;BME280;54536;50.090;14.420;2024-01-06T07:19:02;98493.03;;;8.16;71.86
67740;BME280;54536;50.090;14.420;2024-01-06T07:21:28;98501.97;;;8.23;71.20
67740;BME280;54536;50.090;14.420;2024-01-06T07:23:54;98493.28;;;8.23;71.53
67740;BME280;54536;50.090;14.420;2024-01-06T07:26:20;98498.06;;;8.27;70.97
67740;BME280;54536;50.090;14.420;2024-01-06T07:28:46;98501.56;;;8.18;71.29
67740;BME280;54536;50.090;14.420;2024-01-06T07:31:14;98507.91;;;8.15;72.15
67740;BME280;54536;50.090;14.420;2024-01-06T07:33:40;98509.44;;;8.18;71.80
67740;BME280;54536;50.090;14.420;2024-01-06T07:36:06;98506.34;;;8.32;71.49
67740;BME280;54536;50.090;14.420;2024-01-06T07:38:32;98508.13;;;8.32;71.21
67740;BME280;54536;50.090;14.420;2024-01-06T07:40:58;98510.25;;;8.18;71.26
67740;BME280;54536;50.090;14.420;2024-01-06T07:43:24;98514.13;;;8.14;71.38
67740;BME280;54536;50.090;14.420;2024-01-06T07:45:50;98517.00;;;8.21;71.58
67740;BME280;54536;50.090;14.420;2024-01-06T07:48:17;98520.84;;;8.17;72.73
67740;BME280;54536;50.090;14.420;2024-01-06T07:50:43;98526.78;;;8.19;73.80
67740;BME280;54536;50.090;14.420;2024-01-06T07:53:09;98529.50;;;8.27;71.89
67740;BME280;54536;50.090;14.420;2024-01-06T07:55:36;98532.97;;;8.28;72.93
67740;BME280;54536;50.090;14.420;2024-01-06T07:58:01;98524.13;;;8.29;72.43
67740;BME280;54536;50.090;14.420;2024-01-06T08:00:28;98536.81;;;8.24;72.02
67740;BME280;54536;50.090;14.420;2024-01-06T08:02:54;98533.91;;;8.27;71.85
67740;BME280;54536;50.090;14.420;2024-01-06T08:05:21;98541.78;;;8.27;71.70
67740;BME280;54536;50.090;14.420;2024-01-06T08:07:47;98534.47;;;8.30;71.73
67740;BME280;54536;50.090;14.420;2024-01-06T08:10:13;98539.41;;;8.33;71.43
67740;BME280;54536;50.090;14.420;2024-01-06T08:12:39;98537.34;;;8.27;71.27
67740;BME280;54536;50.090;14.420;2024-01-06T08:15:05;98538.88;;;8.30;71.59
67740;BME280;54536;50.090;14.420;2024-01-06T08:17:33;98542.53;;;8.09;71.55
67740;BME280;54536;50.090;14.420;2024-01-06T08:19:59;98541.97;;;8.15;72.31
67740;BME280;54536;50.090;14.420;2024-01-06T08:22:25;98554.34;;;8.13;71.61
67740;BME280;54536;50.090;14.420;2024-01-06T08:24:52;98550.63;;;8.16;72.50
67740;BME280;54536;50.090;14.420;2024-01-06T08:27:18;98558.47;;;8.26;72.35
67740;BME280;54536;50.090;14.420;2024-01-06T08:29:44;98565.78;;;8.22;72.51
67740;BME280;54536;50.090;14.420;2024-01-06T08:32:10;98566.59;;;8.32;72.11
67740;BME280;54536;50.090;14.420;2024-01-06T08:34:37;98564.81;;;8.23;71.63
67740;BME280;54536;50.090;14.420;2024-01-06T08:37:03;98569.22;;;8.23;71.70
67740;BME280;54536;50.090;14.420;2024-01-06T08:39:30;98567.97;;;8.27;71.36
67740;BME280;54536;50.090;14.420;2024-01-06T08:41:56;98567.56;;;8.31;71.61
67740;BME280;54536;50.090;14.420;2024-01-06T08:44:22;98569.63;;;8.28;71.41
67740;BME280;54536;50.090;14.420;2024-01-06T08:46:48;98572.38;;;8.26;71.58
67740;BME280;54536;50.090;14.420;2024-01-06T08:49:14;98574.59;;;8.31;71.76
67740;BME280;54536;50.090;14.420;2024-01-06T08:51:41;98577.59;;;8.36;70.76
67740;BME280;54536;50.090;14.420;2024-01-06T08:54:07;98581.19;;;8.35;70.79
67740;BME280;54536;50.090;14.420;2024-01-06T08:56:34;98580.69;;;8.21;70.93
67740;BME280;54536;50.090;14.420;2024-01-06T08:59:00;98579.56;;;8.34;70.83
67740;BME280;54536;50.090;14.420;2024-01-06T09:01:27;98577.22;;;8.40;70.65
67740;BME280;54536;50.090;14.420;2024-01-06T09:03:53;98573.19;;;8.36;69.35
67740;BME280;54536;50.090;14.420;2024-01-06T09:06:19;98587.53;;;8.42;69.98
67740;BME280;54536;50.090;14.420;2024-01-06T09:08:45;98581.84;;;8.37;69.98
67740;BME280;54536;50.090;14.420;2024-01-06T09:11:11;98579.00;;;8.40;69.35
67740;BME280;54536;50.090;14.420;2024-01-06T09:13:37;98584.19;;;8.50;69.36
67740;BME280;54536;50.090;14.420;2024-01-06T09:16:03;98582.84;;;8.46;68.91
67740;BME280;54536;50.090;14.420;2024-01-06T09:18:29;98577.56;;;8.55;69.02
67740;BME280;54536;50.090;14.420;2024-01-06T09:20:55;98575.34;;;8.60;68.80
67740;BME280;54536;50.090;14.420;2024-01-06T09:23:22;98576.56;;;8.66;68.35
67740;BME280;54536;50.090;14.420;2024-01-06T09:25:48;98575.59;;;8.67;68.14
67740;BME280;54536;50.090;14.420;2024-01-06T09:28:17;98587.06;;;8.56;68.20
67740;BME280;54536;50.090;14.420;2024-01-06T09:30:43;98585.97;;;8.59;67.58
67740;BME280;54536;50.090;14.420;2024-01-06T09:33:10;98588.22;;;8.54;67.65
67740;BME280;54536;50.090;14.420;2024-01-06T09:35:36;98594.94;;;8.56;68.07
67740;BME280;54536;50.090;14.420;2024-01-06T09:38:02;98601.97;;;8.56;67.84
67740;BME280;54536;50.090;14.420;2024-01-06T09:40:31;98609.56;;;8.59;68.05
67740;BME280;54536;50.090;14.420;2024-01-06T09:42:57;98603.94;;;8.54;68.07
67740;BME280;54536;50.090;14.420;2024-01-06T09:45:23;98606.28;;;8.47;67.91
67740;BME280;54536;50.090;14.420;2024-01-06T09:47:51;98605.69;;;8.53;68.25
67740;BME280;54536;50.090;14.420;2024-01-06T09:50:21;98607.50;;;8.53;68.55
67740;BME280;54536;50.090;14.420;2024-01-06T09:52:48;98606.41;;;8.55;68.04
67740;BME280;54536;50.090;14.420;2024-01-06T09:55:29;98606.00;;;8.50;68.54
67740;BME280;54536;50.090;14.420;2024-01-06T09:57:55;98605.84;;;8.52;67.75
67740;BME280;54536;50.090;14.420;2024-01-06T10:00:21;98604.97;;;8.71;67.92
67740;BME280;54536;50.090;14.420;2024-01-06T10:02:49;98592.41;;;8.74;67.89
67740;BME280;54536;50.090;14.420;2024-01-06T10:05:16;98597.78;;;8.73;67.42
67740;BME280;54536;50.090;14.420;2024-01-06T10:07:44;98593.00;;;8.58;68.01
67740;BME280;54536;50.090;14.420;2024-01-06T10:10:11;98600.72;;;8.60;68.08
67740;BME280;54536;50.090;14.420;2024-01-06T10:12:38;98595.19;;;8.63;68.07
67740;BME280;54536;50.090;14.420;2024-01-06T10:15:10;98590.13;;;8.52;67.81
67740;BME280;54536;50.090;14.420;2024-01-06T10:17:37;98592.72;;;8.61;68.68
67740;BME280;54536;50.090;14.420;2024-01-06T10:20:09;98582.94;;;8.63;67.99
67740;BME280;54536;50.090;14.420;2024-01-06T10:22:36;98587.44;;;8.71;67.90
67740;BME280;54536;50.090;14.420;2024-01-06T10:25:07;98591.47;;;8.65;68.05
67740;BME280;54536;50.090;14.420;2024-01-06T10:27:35;98594.09;;;8.65;67.40
67740;BME280;54536;50.090;14.420;2024-01-06T10:30:01;98600.00;;;8.67;67.79
67740;BME280;54536;50.090;14.420;2024-01-06T10:32:31;98596.28;;;8.70;67.70
67740;BME280;54536;50.090;14.420;2024-01-06T10:35:00;98595.34;;;8.61;67.92
67740;BME280;54536;50.090;14.420;2024-01-06T10:37:28;98602.47;;;8.69;67.98
67740;BME280;54536;50.090;14.420;2024-01-06T10:40:11;98598.09;;;8.60;67.70
67740;BME280;54536;50.090;14.420;2024-01-06T10:42:39;98590.88;;;8.72;67.88
67740;BME280;54536;50.090;14.420;2024-01-06T10:45:08;98595.16;;;8.73;67.53
67740;BME280;54536;50.090;14.420;2024-01-06T10:47:36;98588.19;;;8.63;68.49
67740;BME280;54536;50.090;14.420;2024-01-06T10:50:03;98587.47;;;8.61;67.96
67740;BME280;54536;50.090;14.420;2024-01-06T10:52:30;98570.75;;;8.72;67.86
67740;BME280;54536;50.090;14.420;2024-01-06T10:54:58;98567.16;;;8.73;67.30
67740;BME280;54536;50.090;14.420;2024-01-06T10:57:24;98569.63;;;8.75;66.80
67740;BME280;54536;50.090;14.420;2024-01-06T10:59:52;98562.00;;;8.81;67.25
67740;BME280;54536;50.090;14.420;2024-01-06T11:02:19;98571.75;;;8.89;68.01
67740;BME280;54536;50.090;14.420;2024-01-06T11:04:47;98556.19;;;8.87;67.92
67740;BME280;54536;50.090;14.420;2024-01-06T11:07:16;98563.59;;;8.92;67.45
67740;BME280;54536;50.090;14.420;2024-01-06T11:12:28;98564.59;;;8.91;66.84
67740;BME280;54536;50.090;14.420;2024-01-06T11:14:54;98570.00;;;8.89;66.89
67740;BME280;54536;50.090;14.420;2024-01-06T11:20:14;98566.09;;;8.94;66.26
67740;BME280;54536;50.090;14.420;2024-01-06T11:22:40;98565.69;;;8.88;67.46
67740;BME280;54536;50.090;14.420;2024-01-06T11:25:14;98566.63;;;8.97;66.80
67740;BME280;54536;50.090;14.420;2024-01-06T11:27:43;98568.56;;;8.95;66.86
67740;BME280;54536;50.090;14.420;2024-01-06T11:30:21;98561.22;;;8.99;66.90
67740;BME280;54536;50.090;14.420;2024-01-06T11:32:47;98561.22;;;8.99;67.11
67740;BME280;54536;50.090;14.420;2024-01-06T11:35:16;98570.59;;;9.01;67.16
67740;BME280;54536;50.090;14.420;2024-01-06T11:43:02;98574.63;;;8.96;66.41
67740;BME280;54536;50.090;14.420;2024-01-06T11:45:29;98573.84;;;8.85;66.77
67740;BME280;54536;50.090;14.420;2024-01-06T11:47:59;98569.13;;;8.89;67.43
67740;BME280;54536;50.090;14.420;2024-01-06T11:50:26;98573.13;;;8.93;67.45
67740;BME280;54536;50.090;14.420;2024-01-06T11:52:53;98575.75;;;8.93;67.61
67740;BME280;54536;50.090;14.420;2024-01-06T11:55:21;98574.63;;;8.96;67.82
67740;BME280;54536;50.090;14.420;2024-01-06T11:57:48;98572.97;;;8.95;67.80
67740;BME280;54536;50.090;14.420;2024-01-06T12:00:16;98571.34;;;8.94;67.37
67740;BME280;54536;50.090;14.420;2024-01-06T12:02:43;98580.72;;;8.96;67.12
67740;BME280;54536;50.090;14.420;2024-01-06T12:05:17;98573.81;;;8.95;67.60
67740;BME280;54536;50.090;14.420;2024-01-06T12:07:53;98579.63;;;8.89;68.03
67740;BME280;54536;50.090;14.420;2024-01-06T12:10:22;98574.19;;;9.00;69.05
67740;BME280;54536;50.090;14.420;2024-01-06T12:13:01;98578.50;;;8.91;68.03
67740;BME280;54536;50.090;14.420;2024-01-06T12:15:30;98572.69;;;8.98;68.36
67740;BME280;54536;50.090;14.420;2024-01-06T12:17:57;98566.22;;;8.92;67.98
67740;BME280;54536;50.090;14.420;2024-01-06T12:20:25;98567.38;;;8.89;68.53
67740;BME280;54536;50.090;14.420;2024-01-06T12:22:52;98570.13;;;8.88;67.63
67740;BME280;54536;50.090;14.420;2024-01-06T12:25:23;98573.59;;;8.79;68.56
67740;BME280;54536;50.090;14.420;2024-01-06T12:27:52;98574.25;;;8.90;68.03
67740;BME280;54536;50.090;14.420;2024-01-06T12:30:21;98572.28;;;8.93;67.37
67740;BME280;54536;50.090;14.420;2024-01-06T12:32:48;98570.06;;;8.98;66.97
67740;BME280;54536;50.090;14.420;2024-01-06T12:35:15;98568.66;;;9.03;67.37
67740;BME280;54536;50.090;14.420;2024-01-06T12:37:42;98564.59;;;8.91;67.18
67740;BME280;54536;50.090;14.420;2024-01-06T12:40:10;98571.72;;;8.99;67.27
67740;BME280;54536;50.090;14.420;2024-01-06T12:42:36;98572.84;;;8.96;67.36
67740;BME280;54536;50.090;14.420;2024-01-06T12:45:03;98568.78;;;9.02;67.27
67740;BME280;54536;50.090;14.420;2024-01-06T12:47:29;98576.59;;;8.94;67.46
67740;BME280;54536;50.090;14.420;2024-01-06T12:49:55;98571.38;;;8.84;67.26
67740;BME280;54536;50.090;14.420;2024-01-06T12:52:21;98570.84;;;8.80;66.96
67740;BME280;54536;50.090;14.420;2024-01-06T12:54:47;98578.28;;;8.85;67.34
67740;BME280;54536;50.090;14.420;2024-01-06T12:57:12;98578.72;;;8.80;67.66
67740;BME280;54536;50.090;14.420;2024-01-06T12:59:39;98579.66;;;8.79;67.67
67740;BME280;54536;50.090;14.420;2024-01-06T13:02:05;98583.81;;;8.82;67.57
67740;BME280;54536;50.090;14.420;2024-01-06T13:04:31;98580.28;;;8.73;67.25
67740;BME280;54536;50.090;14.420;2024-01-06T13:06:58;98582.03;;;8.73;68.34
67740;BME280;54536;50.090;14.420;2024-01-06T13:09:24;98586.97;;;8.85;68.73